EZS51WA LFKJ-LSGG
Flight info
| Callsign | EZS51WA |
|---|---|
| Flight time | 0h 57m |
| Altitude | 28000 |
| Route | LONSU M622 PIGOS DCT BARSO DCT IRMAR DCT KINES |
| Aircraft | A320/M-SDE2E3FGHIJ1RWXYZ/LB1 |
Departure
| Time | 2026-04-20 20:32 |
|---|---|
| Airport | Ajaccio Napoléon Bonaparte airport (LFKJ) |
Arrival
| Time | 2026-04-20 21:29 |
|---|---|
| Airport | Geneva International Airport (LSGG) |
| Time | Latitude | Longitude | Altitude | Speed | Heading |
|---|---|---|---|---|---|
| 2026-04-20 20:02 | 41.91914 | 8.79537 | 23 ft | 0 kts | 345° |
| 2026-04-20 20:23 | 41.91907 | 8.79539 | 24 ft | 3 kts | 345° |
| 2026-04-20 20:23 | 41.91883 | 8.79547 | 21 ft | 3 kts | 345° |
| 2026-04-20 20:23 | 41.91878 | 8.79549 | 21 ft | 0 kts | 345° |
| 2026-04-20 20:25 | 41.91891 | 8.79568 | 21 ft | 8 kts | 47° |
| 2026-04-20 20:25 | 41.91952 | 8.79638 | 21 ft | 11 kts | 25° |
| 2026-04-20 20:26 | 41.92019 | 8.79679 | 22 ft | 7 kts | 25° |
| 2026-04-20 20:26 | 41.92087 | 8.79722 | 23 ft | 14 kts | 25° |
| 2026-04-20 20:26 | 41.92174 | 8.79777 | 22 ft | 13 kts | 24° |
| 2026-04-20 20:26 | 41.92250 | 8.79824 | 22 ft | 12 kts | 25° |
| 2026-04-20 20:27 | 41.92342 | 8.79881 | 21 ft | 17 kts | 23° |
| 2026-04-20 20:27 | 41.92453 | 8.79947 | 23 ft | 19 kts | 26° |
| 2026-04-20 20:27 | 41.92578 | 8.80025 | 22 ft | 21 kts | 24° |
| 2026-04-20 20:27 | 41.92716 | 8.80114 | 21 ft | 23 kts | 27° |
| 2026-04-20 20:28 | 41.92851 | 8.80249 | 23 ft | 25 kts | 46° |
| 2026-04-20 20:28 | 41.92957 | 8.80409 | 23 ft | 13 kts | 59° |
| 2026-04-20 20:28 | 41.92955 | 8.80520 | 24 ft | 12 kts | 117° |
| 2026-04-20 20:28 | 41.92982 | 8.80612 | 25 ft | 12 kts | 29° |
| 2026-04-20 20:29 | 41.93063 | 8.80657 | 29 ft | 13 kts | 13° |
| 2026-04-20 20:29 | 41.93141 | 8.80650 | 25 ft | 5 kts | 354° |
| 2026-04-20 20:29 | 41.93152 | 8.80669 | 25 ft | 0 kts | 88° |
| 2026-04-20 20:29 | 41.93151 | 8.80670 | 25 ft | 1 kts | 105° |
| 2026-04-20 20:30 | 41.93095 | 8.80682 | 29 ft | 10 kts | 193° |
| 2026-04-20 20:30 | 41.93088 | 8.80678 | 28 ft | 0 kts | 202° |
| 2026-04-20 20:31 | 41.92962 | 8.80600 | 27 ft | 56 kts | 205° |
| 2026-04-20 20:31 | 41.92382 | 8.80239 | 24 ft | 124 kts | 205° |
| 2026-04-20 20:31 | 41.91445 | 8.79654 | 177 ft | 158 kts | 204° |
| 2026-04-20 20:32 | 41.90456 | 8.79016 | 839 ft | 158 kts | 210° |
| 2026-04-20 20:32 | 41.89684 | 8.77908 | 1323 ft | 173 kts | 239° |
| 2026-04-20 20:32 | 41.89057 | 8.76408 | 1641 ft | 196 kts | 242° |
| 2026-04-20 20:32 | 41.88391 | 8.74692 | 1927 ft | 220 kts | 242° |
| 2026-04-20 20:33 | 41.87635 | 8.72770 | 2295 ft | 245 kts | 241° |
| 2026-04-20 20:33 | 41.86789 | 8.70679 | 2812 ft | 263 kts | 240° |
| 2026-04-20 20:33 | 41.85882 | 8.68499 | 3572 ft | 268 kts | 239° |
| 2026-04-20 20:33 | 41.84957 | 8.66333 | 4569 ft | 268 kts | 239° |
| 2026-04-20 20:34 | 41.84123 | 8.64092 | 5476 ft | 271 kts | 252° |
| 2026-04-20 20:34 | 41.83974 | 8.61571 | 6356 ft | 275 kts | 278° |
| 2026-04-20 20:34 | 41.84670 | 8.59181 | 7250 ft | 279 kts | 304° |
| 2026-04-20 20:34 | 41.86087 | 8.57409 | 8136 ft | 283 kts | 329° |
| 2026-04-20 20:35 | 41.87881 | 8.56284 | 8988 ft | 286 kts | 334° |
| 2026-04-20 20:35 | 41.89712 | 8.55207 | 9811 ft | 288 kts | 334° |
| 2026-04-20 20:35 | 41.91565 | 8.54123 | 10506 ft | 297 kts | 334° |
| 2026-04-20 20:35 | 41.93533 | 8.52968 | 10747 ft | 319 kts | 334° |
| 2026-04-20 20:36 | 41.95595 | 8.51752 | 11354 ft | 326 kts | 334° |
| 2026-04-20 20:36 | 41.97679 | 8.50522 | 12108 ft | 328 kts | 333° |
| 2026-04-20 20:36 | 41.99777 | 8.49281 | 12863 ft | 330 kts | 333° |
| 2026-04-20 20:36 | 42.01886 | 8.48031 | 13589 ft | 332 kts | 333° |
| 2026-04-20 20:37 | 42.04008 | 8.46771 | 14288 ft | 335 kts | 333° |
| 2026-04-20 20:37 | 42.06148 | 8.45499 | 14958 ft | 338 kts | 333° |
| 2026-04-20 20:37 | 42.08304 | 8.44214 | 15626 ft | 340 kts | 333° |
| 2026-04-20 20:37 | 42.10472 | 8.42918 | 16252 ft | 343 kts | 333° |
| 2026-04-20 20:38 | 42.12660 | 8.41612 | 16870 ft | 345 kts | 333° |
| 2026-04-20 20:38 | 42.14865 | 8.40300 | 17473 ft | 348 kts | 333° |
| 2026-04-20 20:38 | 42.17088 | 8.38976 | 18072 ft | 350 kts | 332° |
| 2026-04-20 20:38 | 42.19322 | 8.37641 | 18657 ft | 353 kts | 332° |
| 2026-04-20 20:39 | 42.21574 | 8.36293 | 19216 ft | 356 kts | 332° |
| 2026-04-20 20:39 | 42.23847 | 8.34932 | 19756 ft | 359 kts | 332° |
| 2026-04-20 20:39 | 42.26138 | 8.33558 | 20301 ft | 362 kts | 333° |
| 2026-04-20 20:39 | 42.28449 | 8.32175 | 20819 ft | 365 kts | 333° |
| 2026-04-20 20:40 | 42.30776 | 8.30782 | 21334 ft | 368 kts | 332° |
| 2026-04-20 20:40 | 42.33120 | 8.29373 | 21842 ft | 370 kts | 332° |
| 2026-04-20 20:40 | 42.35483 | 8.27952 | 22350 ft | 373 kts | 332° |
| 2026-04-20 20:40 | 42.37863 | 8.26524 | 22832 ft | 376 kts | 333° |
| 2026-04-20 20:41 | 42.40261 | 8.25082 | 23318 ft | 378 kts | 332° |
| 2026-04-20 20:41 | 42.42675 | 8.23628 | 23783 ft | 381 kts | 332° |
| 2026-04-20 20:41 | 42.45101 | 8.22162 | 24234 ft | 383 kts | 332° |
| 2026-04-20 20:41 | 42.47544 | 8.20686 | 24666 ft | 386 kts | 332° |
| 2026-04-20 20:42 | 42.50002 | 8.19203 | 25097 ft | 387 kts | 332° |
| 2026-04-20 20:42 | 42.52470 | 8.17715 | 25512 ft | 389 kts | 333° |
| 2026-04-20 20:42 | 42.54953 | 8.16220 | 25907 ft | 391 kts | 332° |
| 2026-04-20 20:42 | 42.57444 | 8.14716 | 26293 ft | 393 kts | 332° |
| 2026-04-20 20:43 | 42.59945 | 8.13200 | 26673 ft | 394 kts | 332° |
| 2026-04-20 20:43 | 42.62453 | 8.11675 | 27025 ft | 396 kts | 332° |
| 2026-04-20 20:43 | 42.64976 | 8.10139 | 27380 ft | 398 kts | 332° |
| 2026-04-20 20:43 | 42.67476 | 8.08615 | 27713 ft | 400 kts | 332° |
| 2026-04-20 20:44 | 42.70014 | 8.07071 | 27930 ft | 400 kts | 332° |
| 2026-04-20 20:44 | 42.72511 | 8.05561 | 27949 ft | 383 kts | 332° |
| 2026-04-20 20:44 | 42.74907 | 8.04113 | 27953 ft | 372 kts | 332° |
| 2026-04-20 20:44 | 42.77259 | 8.02683 | 27951 ft | 369 kts | 331° |
| 2026-04-20 20:45 | 42.79553 | 8.01163 | 27953 ft | 366 kts | 328° |
| 2026-04-20 20:45 | 42.81788 | 7.99517 | 27951 ft | 365 kts | 327° |
| 2026-04-20 20:45 | 42.83986 | 7.97804 | 27951 ft | 364 kts | 326° |
| 2026-04-20 20:45 | 42.86176 | 7.96065 | 27952 ft | 364 kts | 326° |
| 2026-04-20 20:46 | 42.88369 | 7.94333 | 27952 ft | 364 kts | 326° |
| 2026-04-20 20:46 | 42.90568 | 7.92620 | 27953 ft | 364 kts | 326° |
| 2026-04-20 20:46 | 42.92770 | 7.90927 | 27952 ft | 364 kts | 327° |
| 2026-04-20 20:46 | 42.94983 | 7.89246 | 27954 ft | 364 kts | 327° |
| 2026-04-20 20:47 | 42.97197 | 7.87566 | 27953 ft | 364 kts | 327° |
| 2026-04-20 20:47 | 42.99406 | 7.85885 | 27952 ft | 363 kts | 326° |
| 2026-04-20 20:47 | 43.01613 | 7.84204 | 27952 ft | 363 kts | 326° |
| 2026-04-20 20:47 | 43.03814 | 7.82523 | 27954 ft | 363 kts | 326° |
| 2026-04-20 20:48 | 43.06016 | 7.80839 | 27952 ft | 362 kts | 326° |
| 2026-04-20 20:48 | 43.08213 | 7.79160 | 27954 ft | 362 kts | 326° |
| 2026-04-20 20:48 | 43.10406 | 7.77476 | 27951 ft | 362 kts | 326° |
| 2026-04-20 20:48 | 43.12597 | 7.75784 | 27952 ft | 361 kts | 326° |
| 2026-04-20 20:49 | 43.14782 | 7.74093 | 27949 ft | 360 kts | 326° |
| 2026-04-20 20:49 | 43.16962 | 7.72404 | 27948 ft | 360 kts | 326° |
| 2026-04-20 20:49 | 43.19142 | 7.70712 | 27948 ft | 360 kts | 326° |
| 2026-04-20 20:49 | 43.21317 | 7.69020 | 27947 ft | 359 kts | 326° |
| 2026-04-20 20:50 | 43.23493 | 7.67331 | 27945 ft | 359 kts | 326° |
| 2026-04-20 20:50 | 43.25672 | 7.65639 | 27946 ft | 360 kts | 326° |
| 2026-04-20 20:50 | 43.27851 | 7.63951 | 27950 ft | 360 kts | 326° |
| 2026-04-20 20:50 | 43.30029 | 7.62261 | 27948 ft | 359 kts | 326° |
| 2026-04-20 20:51 | 43.32204 | 7.60573 | 27950 ft | 359 kts | 326° |
| 2026-04-20 20:51 | 43.34379 | 7.58890 | 27948 ft | 359 kts | 326° |
| 2026-04-20 20:51 | 43.36555 | 7.57202 | 27951 ft | 359 kts | 326° |
| 2026-04-20 20:51 | 43.38726 | 7.55515 | 27948 ft | 359 kts | 326° |
| 2026-04-20 20:52 | 43.40896 | 7.53824 | 27950 ft | 359 kts | 326° |
| 2026-04-20 20:52 | 43.43073 | 7.52126 | 27950 ft | 359 kts | 326° |
| 2026-04-20 20:52 | 43.45243 | 7.50431 | 27952 ft | 359 kts | 326° |
| 2026-04-20 20:52 | 43.47412 | 7.48738 | 27951 ft | 358 kts | 326° |
| 2026-04-20 20:53 | 43.49576 | 7.47044 | 27950 ft | 358 kts | 326° |
| 2026-04-20 20:53 | 43.51741 | 7.45348 | 27950 ft | 358 kts | 325° |
| 2026-04-20 20:53 | 43.53874 | 7.43676 | 27948 ft | 358 kts | 326° |
| 2026-04-20 20:53 | 43.56039 | 7.41982 | 27946 ft | 358 kts | 326° |
| 2026-04-20 20:54 | 43.58202 | 7.40289 | 27947 ft | 358 kts | 326° |
| 2026-04-20 20:54 | 43.60367 | 7.38595 | 27944 ft | 358 kts | 326° |
| 2026-04-20 20:54 | 43.62529 | 7.36888 | 27942 ft | 357 kts | 324° |
| 2026-04-20 20:54 | 43.64642 | 7.35089 | 27939 ft | 356 kts | 322° |
| 2026-04-20 20:55 | 43.66707 | 7.33212 | 27941 ft | 356 kts | 321° |
| 2026-04-20 20:55 | 43.68755 | 7.31293 | 27941 ft | 355 kts | 321° |
| 2026-04-20 20:55 | 43.70792 | 7.29371 | 27937 ft | 355 kts | 321° |
| 2026-04-20 20:55 | 43.72839 | 7.27450 | 27939 ft | 355 kts | 321° |
| 2026-04-20 20:56 | 43.74890 | 7.25542 | 27936 ft | 355 kts | 322° |
| 2026-04-20 20:56 | 43.76943 | 7.23644 | 27936 ft | 356 kts | 322° |
| 2026-04-20 20:56 | 43.79036 | 7.21723 | 27935 ft | 356 kts | 322° |
| 2026-04-20 20:56 | 43.81100 | 7.19829 | 27934 ft | 356 kts | 322° |
| 2026-04-20 20:57 | 43.83133 | 7.17957 | 27936 ft | 355 kts | 322° |
| 2026-04-20 20:57 | 43.85193 | 7.16060 | 27939 ft | 356 kts | 322° |
| 2026-04-20 20:57 | 43.87251 | 7.14165 | 27931 ft | 355 kts | 322° |
| 2026-04-20 20:57 | 43.89309 | 7.12269 | 27933 ft | 356 kts | 322° |
| 2026-04-20 20:58 | 43.91373 | 7.10362 | 27925 ft | 356 kts | 322° |
| 2026-04-20 20:58 | 43.93429 | 7.08460 | 27924 ft | 356 kts | 322° |
| 2026-04-20 20:58 | 43.95489 | 7.06554 | 27931 ft | 356 kts | 322° |
| 2026-04-20 20:58 | 43.97552 | 7.04649 | 27934 ft | 357 kts | 322° |
| 2026-04-20 20:59 | 43.99619 | 7.02734 | 27935 ft | 357 kts | 322° |
| 2026-04-20 20:59 | 44.01681 | 7.00821 | 27928 ft | 356 kts | 321° |
| 2026-04-20 20:59 | 44.03741 | 6.98910 | 27940 ft | 356 kts | 321° |
| 2026-04-20 20:59 | 44.05797 | 6.97000 | 27940 ft | 355 kts | 321° |
| 2026-04-20 21:00 | 44.07849 | 6.95093 | 27942 ft | 354 kts | 321° |
| 2026-04-20 21:00 | 44.09898 | 6.93193 | 27944 ft | 354 kts | 321° |
| 2026-04-20 21:00 | 44.11950 | 6.91294 | 27944 ft | 355 kts | 322° |
| 2026-04-20 21:00 | 44.14154 | 6.89703 | 27939 ft | 361 kts | 333° |
| 2026-04-20 21:01 | 44.16589 | 6.88737 | 27944 ft | 369 kts | 344° |
| 2026-04-20 21:01 | 44.19155 | 6.88309 | 27939 ft | 372 kts | 347° |
| 2026-04-20 21:01 | 44.21725 | 6.87930 | 27938 ft | 372 kts | 347° |
| 2026-04-20 21:01 | 44.24302 | 6.87548 | 27938 ft | 372 kts | 347° |
| 2026-04-20 21:02 | 44.26871 | 6.87161 | 27936 ft | 372 kts | 347° |
| 2026-04-20 21:02 | 44.29442 | 6.86771 | 27934 ft | 372 kts | 347° |
| 2026-04-20 21:02 | 44.32015 | 6.86380 | 27936 ft | 372 kts | 347° |
| 2026-04-20 21:02 | 44.34591 | 6.85989 | 27937 ft | 372 kts | 347° |
| 2026-04-20 21:03 | 44.37164 | 6.85596 | 27937 ft | 373 kts | 347° |
| 2026-04-20 21:03 | 44.39741 | 6.85204 | 27934 ft | 372 kts | 347° |
| 2026-04-20 21:03 | 44.42280 | 6.84818 | 27942 ft | 372 kts | 347° |
| 2026-04-20 21:03 | 44.44851 | 6.84427 | 27931 ft | 372 kts | 347° |
| 2026-04-20 21:04 | 44.47424 | 6.84036 | 27935 ft | 372 kts | 347° |
| 2026-04-20 21:04 | 44.49996 | 6.83644 | 27935 ft | 372 kts | 347° |
| 2026-04-20 21:04 | 44.52574 | 6.83250 | 27939 ft | 373 kts | 347° |
| 2026-04-20 21:04 | 44.55150 | 6.82860 | 27945 ft | 372 kts | 347° |
| 2026-04-20 21:05 | 44.57723 | 6.82473 | 27943 ft | 372 kts | 347° |
| 2026-04-20 21:05 | 44.60289 | 6.82083 | 27933 ft | 370 kts | 347° |
| 2026-04-20 21:05 | 44.62847 | 6.81687 | 27930 ft | 370 kts | 347° |
| 2026-04-20 21:05 | 44.65407 | 6.81291 | 27933 ft | 371 kts | 347° |
| 2026-04-20 21:06 | 44.67972 | 6.80896 | 27932 ft | 370 kts | 347° |
| 2026-04-20 21:06 | 44.70534 | 6.80504 | 27938 ft | 371 kts | 347° |
| 2026-04-20 21:06 | 44.73093 | 6.80113 | 27930 ft | 370 kts | 347° |
| 2026-04-20 21:06 | 44.75653 | 6.79722 | 27931 ft | 370 kts | 347° |
| 2026-04-20 21:07 | 44.78213 | 6.79332 | 27933 ft | 370 kts | 347° |
| 2026-04-20 21:07 | 44.80770 | 6.78955 | 27915 ft | 370 kts | 348° |
| 2026-04-20 21:07 | 44.83343 | 6.78693 | 27919 ft | 372 kts | 349° |
| 2026-04-20 21:07 | 44.85930 | 6.78523 | 27924 ft | 373 kts | 351° |
| 2026-04-20 21:08 | 44.88528 | 6.78391 | 27932 ft | 374 kts | 351° |
| 2026-04-20 21:08 | 44.91125 | 6.78269 | 27930 ft | 373 kts | 351° |
| 2026-04-20 21:08 | 44.93724 | 6.78137 | 27931 ft | 373 kts | 350° |
| 2026-04-20 21:08 | 44.96313 | 6.77988 | 27935 ft | 373 kts | 350° |
| 2026-04-20 21:09 | 44.98903 | 6.77825 | 27932 ft | 373 kts | 350° |
| 2026-04-20 21:09 | 45.01495 | 6.77653 | 27933 ft | 373 kts | 350° |
| 2026-04-20 21:09 | 45.04079 | 6.77479 | 27936 ft | 373 kts | 350° |
| 2026-04-20 21:09 | 45.06669 | 6.77303 | 27942 ft | 372 kts | 351° |
| 2026-04-20 21:10 | 45.09252 | 6.77128 | 27944 ft | 371 kts | 351° |
| 2026-04-20 21:10 | 45.11833 | 6.76953 | 27956 ft | 372 kts | 351° |
| 2026-04-20 21:10 | 45.13546 | 6.76836 | 27957 ft | 372 kts | 351° |
| 2026-04-20 21:10 | 45.16126 | 6.76664 | 27948 ft | 370 kts | 351° |
| 2026-04-20 21:11 | 45.18701 | 6.76495 | 27948 ft | 371 kts | 351° |
| 2026-04-20 21:11 | 45.21280 | 6.76327 | 27951 ft | 371 kts | 351° |
| 2026-04-20 21:11 | 45.23862 | 6.76155 | 27948 ft | 371 kts | 351° |
| 2026-04-20 21:11 | 45.26437 | 6.75981 | 27945 ft | 370 kts | 350° |
| 2026-04-20 21:12 | 45.29006 | 6.75807 | 27944 ft | 370 kts | 351° |
| 2026-04-20 21:12 | 45.31578 | 6.75633 | 27947 ft | 370 kts | 351° |
| 2026-04-20 21:12 | 45.34117 | 6.75273 | 27950 ft | 364 kts | 343° |
| 2026-04-20 21:12 | 45.36603 | 6.74600 | 27956 ft | 364 kts | 343° |
| 2026-04-20 21:13 | 45.39094 | 6.73921 | 27954 ft | 364 kts | 343° |
| 2026-04-20 21:13 | 45.41578 | 6.73245 | 27958 ft | 364 kts | 342° |
| 2026-04-20 21:13 | 45.44067 | 6.72566 | 27963 ft | 364 kts | 342° |
| 2026-04-20 21:13 | 45.46553 | 6.71889 | 27960 ft | 364 kts | 342° |
| 2026-04-20 21:14 | 45.49039 | 6.71213 | 27963 ft | 363 kts | 343° |
| 2026-04-20 21:14 | 45.51522 | 6.70540 | 27964 ft | 363 kts | 343° |
| 2026-04-20 21:14 | 45.53990 | 6.69871 | 27963 ft | 363 kts | 343° |
| 2026-04-20 21:14 | 45.56464 | 6.69221 | 27771 ft | 358 kts | 343° |
| 2026-04-20 21:15 | 45.58895 | 6.68601 | 27525 ft | 352 kts | 343° |
| 2026-04-20 21:15 | 45.61292 | 6.67993 | 27275 ft | 349 kts | 343° |
| 2026-04-20 21:15 | 45.63672 | 6.67385 | 27020 ft | 347 kts | 343° |
| 2026-04-20 21:15 | 45.66043 | 6.66774 | 26768 ft | 345 kts | 343° |
| 2026-04-20 21:16 | 45.68374 | 6.66173 | 26522 ft | 344 kts | 343° |
| 2026-04-20 21:16 | 45.70726 | 6.65565 | 26277 ft | 343 kts | 343° |
| 2026-04-20 21:16 | 45.73052 | 6.64961 | 25948 ft | 338 kts | 343° |
| 2026-04-20 21:16 | 45.75363 | 6.64357 | 25519 ft | 336 kts | 343° |
| 2026-04-20 21:17 | 45.77649 | 6.63745 | 25082 ft | 334 kts | 343° |
| 2026-04-20 21:17 | 45.79931 | 6.63126 | 24625 ft | 331 kts | 343° |
| 2026-04-20 21:17 | 45.82161 | 6.62521 | 24188 ft | 329 kts | 343° |
| 2026-04-20 21:17 | 45.84406 | 6.61913 | 23740 ft | 327 kts | 343° |
| 2026-04-20 21:18 | 45.86639 | 6.61305 | 23285 ft | 326 kts | 342° |
| 2026-04-20 21:18 | 45.88858 | 6.60702 | 22844 ft | 324 kts | 343° |
| 2026-04-20 21:18 | 45.91067 | 6.60100 | 22404 ft | 323 kts | 343° |
| 2026-04-20 21:18 | 45.93269 | 6.59500 | 21967 ft | 321 kts | 343° |
| 2026-04-20 21:19 | 45.95456 | 6.58905 | 21550 ft | 319 kts | 343° |
| 2026-04-20 21:19 | 45.97604 | 6.58320 | 21121 ft | 318 kts | 343° |
| 2026-04-20 21:19 | 45.99765 | 6.57732 | 20705 ft | 315 kts | 343° |
| 2026-04-20 21:20 | 46.03941 | 6.56106 | 19889 ft | 307 kts | 328° |
| 2026-04-20 21:20 | 46.05695 | 6.54413 | 19472 ft | 302 kts | 315° |
| 2026-04-20 21:20 | 46.06964 | 6.52087 | 19085 ft | 294 kts | 295° |
| 2026-04-20 21:20 | 46.07483 | 6.49192 | 18263 ft | 306 kts | 276° |
| 2026-04-20 21:21 | 46.07588 | 6.46095 | 17628 ft | 313 kts | 273° |
| 2026-04-20 21:21 | 46.07665 | 6.42962 | 17116 ft | 314 kts | 274° |
| 2026-04-20 21:21 | 46.07769 | 6.39785 | 16442 ft | 320 kts | 274° |
| 2026-04-20 21:21 | 46.07900 | 6.36584 | 15751 ft | 318 kts | 275° |
| 2026-04-20 21:22 | 46.08052 | 6.33424 | 14936 ft | 315 kts | 275° |
| 2026-04-20 21:22 | 46.08223 | 6.30265 | 13963 ft | 318 kts | 275° |
| 2026-04-20 21:22 | 46.08413 | 6.27081 | 13000 ft | 320 kts | 275° |
| 2026-04-20 21:22 | 46.08621 | 6.23878 | 12053 ft | 321 kts | 276° |
| 2026-04-20 21:23 | 46.08847 | 6.20675 | 11128 ft | 321 kts | 276° |
| 2026-04-20 21:23 | 46.09090 | 6.17491 | 10335 ft | 317 kts | 276° |
| 2026-04-20 21:23 | 46.09333 | 6.14366 | 9610 ft | 311 kts | 276° |
| 2026-04-20 21:23 | 46.09495 | 6.11333 | 9042 ft | 293 kts | 263° |
| 2026-04-20 21:24 | 46.08845 | 6.08720 | 8546 ft | 270 kts | 230° |
| 2026-04-20 21:24 | 46.07651 | 6.06782 | 8129 ft | 249 kts | 227° |
| 2026-04-20 21:24 | 46.06609 | 6.04870 | 7589 ft | 238 kts | 246° |
| 2026-04-20 21:24 | 46.06355 | 6.02618 | 7102 ft | 227 kts | 279° |
| 2026-04-20 21:25 | 46.06836 | 6.00477 | 6504 ft | 224 kts | 295° |
| 2026-04-20 21:25 | 46.07606 | 5.98607 | 6136 ft | 210 kts | 309° |
| 2026-04-20 21:25 | 46.08586 | 5.97168 | 5868 ft | 193 kts | 324° |
| 2026-04-20 21:25 | 46.09813 | 5.96507 | 5344 ft | 190 kts | 355° |
| 2026-04-20 21:26 | 46.11137 | 5.96601 | 4935 ft | 193 kts | 9° |
| 2026-04-20 21:26 | 46.12444 | 5.96947 | 4584 ft | 187 kts | 12° |
| 2026-04-20 21:26 | 46.13677 | 5.97433 | 4208 ft | 184 kts | 17° |
| 2026-04-20 21:26 | 46.14842 | 5.98174 | 3803 ft | 182 kts | 31° |
| 2026-04-20 21:27 | 46.15840 | 5.99243 | 3472 ft | 176 kts | 44° |
| 2026-04-20 21:27 | 46.16679 | 6.00471 | 3210 ft | 168 kts | 46° |
| 2026-04-20 21:27 | 46.17475 | 6.01668 | 2914 ft | 162 kts | 47° |
| 2026-04-20 21:27 | 46.18241 | 6.02802 | 2680 ft | 154 kts | 47° |
| 2026-04-20 21:28 | 46.18995 | 6.03871 | 2473 ft | 151 kts | 44° |
| 2026-04-20 21:28 | 46.19735 | 6.04927 | 2299 ft | 150 kts | 47° |
| 2026-04-20 21:28 | 46.20449 | 6.05997 | 2113 ft | 145 kts | 45° |
| 2026-04-20 21:28 | 46.21157 | 6.07030 | 1904 ft | 145 kts | 45° |
| 2026-04-20 21:29 | 46.21870 | 6.08055 | 1711 ft | 146 kts | 44° |
| 2026-04-20 21:29 | 46.22582 | 6.09105 | 1509 ft | 147 kts | 45° |
| 2026-04-20 21:29 | 46.23278 | 6.10120 | 1400 ft | 130 kts | 46° |
| 2026-04-20 21:29 | 46.23699 | 6.10740 | 1383 ft | 43 kts | 46° |
| 2026-04-20 21:30 | 46.23816 | 6.10909 | 1380 ft | 22 kts | 44° |
| 2026-04-20 21:30 | 46.23835 | 6.11048 | 1378 ft | 14 kts | 180° |
| 2026-04-20 21:30 | 46.23793 | 6.11033 | 1377 ft | 1 kts | 153° |
| 2026-04-20 21:30 | 46.23792 | 6.11034 | 1376 ft | 3 kts | 152° |
| 2026-04-20 21:31 | 46.23716 | 6.11065 | 1384 ft | 19 kts | 193° |
| 2026-04-20 21:31 | 46.23621 | 6.10956 | 1390 ft | 16 kts | 225° |
| 2026-04-20 21:31 | 46.23544 | 6.10846 | 1390 ft | 15 kts | 225° |
| 2026-04-20 21:31 | 46.23469 | 6.10736 | 1387 ft | 16 kts | 226° |
| 2026-04-20 21:32 | 46.23383 | 6.10624 | 1392 ft | 18 kts | 229° |
| 2026-04-20 21:32 | 46.23294 | 6.10488 | 1395 ft | 14 kts | 223° |
| 2026-04-20 21:32 | 46.23234 | 6.10400 | 1396 ft | 13 kts | 225° |
| 2026-04-20 21:32 | 46.23174 | 6.10314 | 1398 ft | 9 kts | 224° |
| 2026-04-20 21:33 | 46.23110 | 6.10264 | 1393 ft | 12 kts | 180° |
| 2026-04-20 21:33 | 46.23053 | 6.10265 | 1395 ft | 6 kts | 180° |
| 2026-04-20 21:33 | 46.23011 | 6.10279 | 1395 ft | 6 kts | 127° |
| 2026-04-20 21:33 | 46.23009 | 6.10338 | 1397 ft | 4 kts | 90° |
| 2026-04-20 21:34 | 46.23009 | 6.10343 | 1395 ft | 0 kts | 90° |